sensor_id;sensor_type;location;lat;lon;timestamp;pressure;altitude;pressure_sealevel;temperature;humidity
75447;BME280;64024;55.820;37.574;2023-04-24T00:02:04;98815.06;;;23.37;26.00
75447;BME280;64024;55.820;37.574;2023-04-24T00:04:32;98812.16;;;23.33;26.08
75447;BME280;64024;55.820;37.574;2023-04-24T00:06:57;98806.25;;;23.31;25.96
75447;BME280;64024;55.820;37.574;2023-04-24T00:09:25;98805.44;;;23.31;25.86
75447;BME280;64024;55.820;37.574;2023-04-24T00:11:51;98814.97;;;23.28;25.79
75447;BME280;64024;55.820;37.574;2023-04-24T00:14:17;98809.84;;;23.27;25.95
75447;BME280;64024;55.820;37.574;2023-04-24T00:16:43;98812.84;;;23.25;26.09
75447;BME280;64024;55.820;37.574;2023-04-24T00:19:09;98814.28;;;23.23;26.26
75447;BME280;64024;55.820;37.574;2023-04-24T00:21:36;98815.97;;;23.32;25.97
75447;BME280;64024;55.820;37.574;2023-04-24T00:24:02;98811.75;;;23.26;25.94
75447;BME280;64024;55.820;37.574;2023-04-24T00:26:27;98812.97;;;23.20;25.94
75447;BME280;64024;55.820;37.574;2023-04-24T00:28:53;98817.91;;;23.18;25.96
75447;BME280;64024;55.820;37.574;2023-04-24T00:31:19;98813.88;;;23.16;25.90
75447;BME280;64024;55.820;37.574;2023-04-24T00:33:44;98810.63;;;23.14;26.15
75447;BME280;64024;55.820;37.574;2023-04-24T00:36:10;98811.25;;;23.11;26.06
75447;BME280;64024;55.820;37.574;2023-04-24T00:38:36;98811.53;;;23.09;26.01
75447;BME280;64024;55.820;37.574;2023-04-24T00:41:02;98809.16;;;23.07;26.01
75447;BME280;64024;55.820;37.574;2023-04-24T00:43:27;98811.06;;;23.07;25.93
75447;BME280;64024;55.820;37.574;2023-04-24T00:45:53;98812.44;;;23.04;26.03
75447;BME280;64024;55.820;37.574;2023-04-24T00:48:20;98806.53;;;23.02;26.00
75447;BME280;64024;55.820;37.574;2023-04-24T00:50:47;98807.63;;;23.01;26.02
75447;BME280;64024;55.820;37.574;2023-04-24T00:53:12;98816.88;;;23.00;26.05
75447;BME280;64024;55.820;37.574;2023-04-24T00:55:38;98809.84;;;22.99;25.99
75447;BME280;64024;55.820;37.574;2023-04-24T00:58:04;98813.66;;;22.98;26.03
75447;BME280;64024;55.820;37.574;2023-04-24T01:00:31;98807.72;;;22.96;26.36
75447;BME280;64024;55.820;37.574;2023-04-24T01:02:59;98813.72;;;22.93;26.01
75447;BME280;64024;55.820;37.574;2023-04-24T01:05:27;98812.94;;;22.93;26.22
75447;BME280;64024;55.820;37.574;2023-04-24T01:07:53;98813.25;;;22.91;25.99
75447;BME280;64024;55.820;37.574;2023-04-24T01:10:18;98812.69;;;22.89;25.98
75447;BME280;64024;55.820;37.574;2023-04-24T01:12:46;98803.75;;;22.89;26.16
75447;BME280;64024;55.820;37.574;2023-04-24T01:15:11;98809.50;;;22.87;26.34
75447;BME280;64024;55.820;37.574;2023-04-24T01:17:37;98813.31;;;22.86;26.22
75447;BME280;64024;55.820;37.574;2023-04-24T01:20:04;98814.44;;;22.85;26.29
75447;BME280;64024;55.820;37.574;2023-04-24T01:22:32;98804.97;;;22.82;26.13
75447;BME280;64024;55.820;37.574;2023-04-24T01:24:58;98800.66;;;22.81;26.00
75447;BME280;64024;55.820;37.574;2023-04-24T01:27:24;98803.66;;;22.80;26.24
75447;BME280;64024;55.820;37.574;2023-04-24T01:29:50;98804.75;;;22.79;25.97
75447;BME280;64024;55.820;37.574;2023-04-24T01:32:17;98802.16;;;22.88;26.17
75447;BME280;64024;55.820;37.574;2023-04-24T01:34:43;98799.88;;;22.81;25.95
75447;BME280;64024;55.820;37.574;2023-04-24T01:37:10;98803.44;;;22.76;26.26
75447;BME280;64024;55.820;37.574;2023-04-24T01:39:35;98795.13;;;22.73;26.30
75447;BME280;64024;55.820;37.574;2023-04-24T01:42:01;98800.03;;;22.71;26.14
75447;BME280;64024;55.820;37.574;2023-04-24T01:44:30;98803.84;;;22.70;26.23
75447;BME280;64024;55.820;37.574;2023-04-24T01:46:56;98795.22;;;22.68;26.37
75447;BME280;64024;55.820;37.574;2023-04-24T01:49:22;98795.53;;;22.66;26.10
75447;BME280;64024;55.820;37.574;2023-04-24T01:51:48;98793.13;;;22.65;26.47
75447;BME280;64024;55.820;37.574;2023-04-24T01:54:14;98795.00;;;22.64;25.95
75447;BME280;64024;55.820;37.574;2023-04-24T01:56:42;98787.19;;;22.63;26.46
75447;BME280;64024;55.820;37.574;2023-04-24T01:59:12;98788.28;;;22.62;26.40
75447;BME280;64024;55.820;37.574;2023-04-24T02:01:38;98788.56;;;22.60;26.49
75447;BME280;64024;55.820;37.574;2023-04-24T02:04:05;98786.97;;;22.59;26.36
75447;BME280;64024;55.820;37.574;2023-04-24T02:06:31;98786.97;;;22.59;26.17
75447;BME280;64024;55.820;37.574;2023-04-24T02:08:58;98792.38;;;22.59;26.47
75447;BME280;64024;55.820;37.574;2023-04-24T02:11:24;98785.69;;;22.56;26.38
75447;BME280;64024;55.820;37.574;2023-04-24T02:13:50;98786.47;;;22.57;26.15
75447;BME280;64024;55.820;37.574;2023-04-24T02:16:17;98798.38;;;22.56;26.43
75447;BME280;64024;55.820;37.574;2023-04-24T02:18:43;98792.97;;;22.56;26.23
75447;BME280;64024;55.820;37.574;2023-04-24T02:21:09;98788.66;;;22.55;26.50
75447;BME280;64024;55.820;37.574;2023-04-24T02:23:36;98797.59;;;22.55;26.26
75447;BME280;64024;55.820;37.574;2023-04-24T02:26:01;98793.28;;;22.54;26.09
75447;BME280;64024;55.820;37.574;2023-04-24T02:28:28;98805.72;;;22.55;26.15
75447;BME280;64024;55.820;37.574;2023-04-24T02:30:53;98800.59;;;22.54;26.21
75447;BME280;64024;55.820;37.574;2023-04-24T02:33:19;98794.09;;;22.55;26.36
75447;BME280;64024;55.820;37.574;2023-04-24T02:35:45;98800.31;;;22.55;26.26
75447;BME280;64024;55.820;37.574;2023-04-24T02:38:10;98796.50;;;22.56;26.22
75447;BME280;64024;55.820;37.574;2023-04-24T02:40:36;98803.53;;;22.57;26.10
75447;BME280;64024;55.820;37.574;2023-04-24T02:43:02;98804.03;;;22.59;26.39
75447;BME280;64024;55.820;37.574;2023-04-24T02:45:28;98801.84;;;22.62;26.27
75447;BME280;64024;55.820;37.574;2023-04-24T02:47:53;98800.13;;;22.66;26.48
75447;BME280;64024;55.820;37.574;2023-04-24T02:50:19;98803.34;;;22.68;26.54
75447;BME280;64024;55.820;37.574;2023-04-24T02:52:44;98803.53;;;22.71;26.32
75447;BME280;64024;55.820;37.574;2023-04-24T02:55:10;98808.06;;;22.76;26.54
75447;BME280;64024;55.820;37.574;2023-04-24T02:57:36;98808.28;;;22.79;26.40
75447;BME280;64024;55.820;37.574;2023-04-24T03:00:02;98809.28;;;22.83;26.68
75447;BME280;64024;55.820;37.574;2023-04-24T03:02:28;98808.69;;;22.87;26.59
75447;BME280;64024;55.820;37.574;2023-04-24T03:04:54;98817.56;;;22.92;26.75
75447;BME280;64024;55.820;37.574;2023-04-24T03:07:20;98813.94;;;22.97;26.56
75447;BME280;64024;55.820;37.574;2023-04-24T03:09:46;98809.53;;;23.01;26.54
75447;BME280;64024;55.820;37.574;2023-04-24T03:12:13;98816.47;;;23.07;26.66
75447;BME280;64024;55.820;37.574;2023-04-24T03:14:38;98810.16;;;23.12;27.11
75447;BME280;64024;55.820;37.574;2023-04-24T03:17:04;98817.06;;;23.18;26.93
75447;BME280;64024;55.820;37.574;2023-04-24T03:19:30;98815.88;;;23.24;27.08
75447;BME280;64024;55.820;37.574;2023-04-24T03:21:55;98822.31;;;23.28;27.02
75447;BME280;64024;55.820;37.574;2023-04-24T03:24:21;98818.38;;;23.34;26.92
75447;BME280;64024;55.820;37.574;2023-04-24T03:26:47;98819.09;;;23.40;27.16
75447;BME280;64024;55.820;37.574;2023-04-24T03:29:13;98819.47;;;23.47;27.04
75447;BME280;64024;55.820;37.574;2023-04-24T03:31:39;98820.97;;;23.53;27.13
75447;BME280;64024;55.820;37.574;2023-04-24T03:34:04;98819.25;;;23.57;26.55
75447;BME280;64024;55.820;37.574;2023-04-24T03:36:30;98821.53;;;23.64;26.51
75447;BME280;64024;55.820;37.574;2023-04-24T03:38:57;98819.56;;;23.69;26.51
75447;BME280;64024;55.820;37.574;2023-04-24T03:41:22;98819.97;;;23.76;26.48
75447;BME280;64024;55.820;37.574;2023-04-24T03:43:48;98825.75;;;23.84;26.73
75447;BME280;64024;55.820;37.574;2023-04-24T03:46:14;98822.94;;;23.89;26.73
75447;BME280;64024;55.820;37.574;2023-04-24T03:48:40;98825.22;;;23.95;26.70
75447;BME280;64024;55.820;37.574;2023-04-24T03:51:06;98830.25;;;24.02;26.97
75447;BME280;64024;55.820;37.574;2023-04-24T03:53:31;98827.91;;;24.09;27.08
75447;BME280;64024;55.820;37.574;2023-04-24T03:55:57;98835.63;;;24.16;27.52
75447;BME280;64024;55.820;37.574;2023-04-24T03:58:23;98834.38;;;24.22;27.58
75447;BME280;64024;55.820;37.574;2023-04-24T04:00:48;98832.66;;;24.26;27.59
75447;BME280;64024;55.820;37.574;2023-04-24T04:03:15;98835.75;;;24.33;27.23
75447;BME280;64024;55.820;37.574;2023-04-24T04:05:41;98837.28;;;24.39;27.33
75447;BME280;64024;55.820;37.574;2023-04-24T04:08:06;98836.03;;;24.45;27.22
75447;BME280;64024;55.820;37.574;2023-04-24T04:10:32;98841.03;;;24.52;26.74
75447;BME280;64024;55.820;37.574;2023-04-24T04:12:57;98840.59;;;24.59;27.13
75447;BME280;64024;55.820;37.574;2023-04-24T04:15:23;98845.59;;;24.65;26.84
75447;BME280;64024;55.820;37.574;2023-04-24T04:17:49;98842.75;;;24.70;26.80
75447;BME280;64024;55.820;37.574;2023-04-24T04:20:15;98843.91;;;24.78;26.59
75447;BME280;64024;55.820;37.574;2023-04-24T04:22:41;98836.13;;;24.85;26.66
75447;BME280;64024;55.820;37.574;2023-04-24T04:25:06;98842.22;;;24.91;26.33
75447;BME280;64024;55.820;37.574;2023-04-24T04:27:33;98842.59;;;24.98;26.49
75447;BME280;64024;55.820;37.574;2023-04-24T04:30:00;98842.94;;;25.05;26.32
75447;BME280;64024;55.820;37.574;2023-04-24T04:32:36;98841.38;;;25.13;26.14
75447;BME280;64024;55.820;37.574;2023-04-24T04:35:03;98847.97;;;25.20;26.04
75447;BME280;64024;55.820;37.574;2023-04-24T04:37:35;98851.06;;;25.27;25.96
75447;BME280;64024;55.820;37.574;2023-04-24T04:40:01;98849.78;;;25.34;26.05
75447;BME280;64024;55.820;37.574;2023-04-24T04:42:31;98846.28;;;25.42;25.62
75447;BME280;64024;55.820;37.574;2023-04-24T04:44:58;98851.28;;;25.48;25.56
75447;BME280;64024;55.820;37.574;2023-04-24T04:47:24;98850.81;;;25.55;25.57
75447;BME280;64024;55.820;37.574;2023-04-24T04:49:50;98851.16;;;25.62;25.61
75447;BME280;64024;55.820;37.574;2023-04-24T04:52:19;98854.22;;;25.69;25.17
75447;BME280;64024;55.820;37.574;2023-04-24T04:54:45;98851.03;;;25.76;25.11
75447;BME280;64024;55.820;37.574;2023-04-24T04:57:11;98861.16;;;25.84;25.12
75447;BME280;64024;55.820;37.574;2023-04-24T04:59:37;98860.22;;;25.89;24.93
75447;BME280;64024;55.820;37.574;2023-04-24T05:02:03;98855.41;;;25.94;25.12
75447;BME280;64024;55.820;37.574;2023-04-24T05:04:29;98857.16;;;25.99;24.88
75447;BME280;64024;55.820;37.574;2023-04-24T05:06:55;98850.75;;;26.03;24.97
75447;BME280;64024;55.820;37.574;2023-04-24T05:09:22;98859.88;;;26.08;24.58
75447;BME280;64024;55.820;37.574;2023-04-24T05:11:47;98857.03;;;26.13;24.86
75447;BME280;64024;55.820;37.574;2023-04-24T05:14:13;98857.97;;;26.17;24.91
75447;BME280;64024;55.820;37.574;2023-04-24T05:16:39;98857.81;;;26.22;24.56
75447;BME280;64024;55.820;37.574;2023-04-24T05:19:05;98865.81;;;26.27;24.72
75447;BME280;64024;55.820;37.574;2023-04-24T05:21:31;98861.81;;;26.33;24.53
75447;BME280;64024;55.820;37.574;2023-04-24T05:23:57;98863.59;;;26.38;24.62
75447;BME280;64024;55.820;37.574;2023-04-24T05:26:23;98861.50;;;26.43;24.50
75447;BME280;64024;55.820;37.574;2023-04-24T05:28:48;98863.28;;;26.48;24.21
75447;BME280;64024;55.820;37.574;2023-04-24T05:31:15;98860.88;;;26.55;23.88
75447;BME280;64024;55.820;37.574;2023-04-24T05:33:43;98866.63;;;26.62;24.32
75447;BME280;64024;55.820;37.574;2023-04-24T05:36:09;98861.63;;;26.73;24.10
75447;BME280;64024;55.820;37.574;2023-04-24T05:38:35;98859.38;;;26.84;24.11
75447;BME280;64024;55.820;37.574;2023-04-24T05:41:00;98864.97;;;26.96;24.45
75447;BME280;64024;55.820;37.574;2023-04-24T05:43:26;98864.25;;;27.08;25.31
75447;BME280;64024;55.820;37.574;2023-04-24T05:45:52;98858.31;;;27.23;25.13
75447;BME280;64024;55.820;37.574;2023-04-24T05:48:19;98861.63;;;27.37;25.22
75447;BME280;64024;55.820;37.574;2023-04-24T05:50:44;98859.13;;;27.53;24.84
75447;BME280;64024;55.820;37.574;2023-04-24T05:53:10;98866.75;;;27.68;24.55
75447;BME280;64024;55.820;37.574;2023-04-24T05:55:36;98864.47;;;27.79;24.52
75447;BME280;64024;55.820;37.574;2023-04-24T05:58:02;98860.53;;;27.89;23.81
75447;BME280;64024;55.820;37.574;2023-04-24T06:00:28;98857.59;;;27.94;23.92
75447;BME280;64024;55.820;37.574;2023-04-24T06:02:54;98864.00;;;27.98;23.86
75447;BME280;64024;55.820;37.574;2023-04-24T06:05:20;98857.53;;;28.03;23.47
75447;BME280;64024;55.820;37.574;2023-04-24T06:07:46;98857.16;;;28.13;23.43
75447;BME280;64024;55.820;37.574;2023-04-24T06:10:13;98854.22;;;28.39;23.76
75447;BME280;64024;55.820;37.574;2023-04-24T06:12:39;98852.16;;;28.36;23.60
75447;BME280;64024;55.820;37.574;2023-04-24T06:15:06;98863.47;;;28.25;23.15
75447;BME280;64024;55.820;37.574;2023-04-24T06:17:32;98853.94;;;28.11;23.66
75447;BME280;64024;55.820;37.574;2023-04-24T06:19:58;98860.03;;;27.95;23.57
75447;BME280;64024;55.820;37.574;2023-04-24T06:22:24;98863.00;;;27.82;23.32
75447;BME280;64024;55.820;37.574;2023-04-24T06:24:49;98871.06;;;27.69;23.66
75447;BME280;64024;55.820;37.574;2023-04-24T06:27:15;98863.13;;;27.56;23.35
75447;BME280;64024;55.820;37.574;2023-04-24T06:29:41;98871.66;;;27.45;23.54
75447;BME280;64024;55.820;37.574;2023-04-24T06:32:06;98873.97;;;27.35;23.38
75447;BME280;64024;55.820;37.574;2023-04-24T06:34:33;98858.31;;;27.23;23.31
75447;BME280;64024;55.820;37.574;2023-04-24T06:37:00;98870.53;;;27.17;23.47
75447;BME280;64024;55.820;37.574;2023-04-24T06:39:25;98873.41;;;27.12;23.95
75447;BME280;64024;55.820;37.574;2023-04-24T06:41:51;98864.59;;;27.06;23.71
75447;BME280;64024;55.820;37.574;2023-04-24T06:44:16;98871.38;;;27.00;23.76
75447;BME280;64024;55.820;37.574;2023-04-24T06:46:43;98864.13;;;26.95;24.07
75447;BME280;64024;55.820;37.574;2023-04-24T06:49:09;98864.31;;;26.90;23.86
75447;BME280;64024;55.820;37.574;2023-04-24T06:51:35;98862.56;;;26.86;24.00
75447;BME280;64024;55.820;37.574;2023-04-24T06:54:00;98863.22;;;26.83;23.75
75447;BME280;64024;55.820;37.574;2023-04-24T06:56:26;98864.97;;;26.78;24.09
75447;BME280;64024;55.820;37.574;2023-04-24T06:58:54;98862.13;;;26.75;23.52
75447;BME280;64024;55.820;37.574;2023-04-24T07:01:19;98871.75;;;26.72;23.71
75447;BME280;64024;55.820;37.574;2023-04-24T07:03:45;98876.25;;;26.68;23.67
75447;BME280;64024;55.820;37.574;2023-04-24T07:06:11;98871.75;;;26.64;23.77
75447;BME280;64024;55.820;37.574;2023-04-24T07:08:37;98874.00;;;26.62;23.30
75447;BME280;64024;55.820;37.574;2023-04-24T07:11:03;98868.38;;;26.58;23.38
75447;BME280;64024;55.820;37.574;2023-04-24T07:13:29;98872.56;;;26.56;23.43
75447;BME280;64024;55.820;37.574;2023-04-24T07:15:55;98877.53;;;26.53;23.10
75447;BME280;64024;55.820;37.574;2023-04-24T07:18:22;98880.94;;;26.50;23.49
75447;BME280;64024;55.820;37.574;2023-04-24T07:20:48;98881.22;;;26.49;23.25
75447;BME280;64024;55.820;37.574;2023-04-24T07:23:15;98883.78;;;26.45;23.05
75447;BME280;64024;55.820;37.574;2023-04-24T07:25:41;98867.75;;;26.44;23.35
75447;BME280;64024;55.820;37.574;2023-04-24T07:28:07;98867.28;;;26.42;23.29
75447;BME280;64024;55.820;37.574;2023-04-24T07:30:33;98871.44;;;26.39;23.30
75447;BME280;64024;55.820;37.574;2023-04-24T07:32:59;98877.22;;;26.38;22.82
75447;BME280;64024;55.820;37.574;2023-04-24T07:35:26;98871.59;;;26.34;23.08
75447;BME280;64024;55.820;37.574;2023-04-24T07:37:55;98882.81;;;26.33;23.26
75447;BME280;64024;55.820;37.574;2023-04-24T07:40:21;98884.72;;;26.32;23.23
75447;BME280;64024;55.820;37.574;2023-04-24T07:42:47;98873.03;;;26.32;23.10
75447;BME280;64024;55.820;37.574;2023-04-24T07:45:14;98869.50;;;26.31;23.26
75447;BME280;64024;55.820;37.574;2023-04-24T07:47:43;98867.59;;;26.32;22.87
75447;BME280;64024;55.820;37.574;2023-04-24T07:50:11;98869.50;;;26.31;23.11
75447;BME280;64024;55.820;37.574;2023-04-24T07:52:37;98872.25;;;26.31;22.85
75447;BME280;64024;55.820;37.574;2023-04-24T07:55:03;98861.34;;;26.31;23.11
75447;BME280;64024;55.820;37.574;2023-04-24T07:57:30;98864.88;;;26.32;23.05
75447;BME280;64024;55.820;37.574;2023-04-24T07:59:55;98861.81;;;26.33;22.85
75447;BME280;64024;55.820;37.574;2023-04-24T08:02:21;98857.97;;;26.34;22.88
75447;BME280;64024;55.820;37.574;2023-04-24T08:04:54;98867.25;;;26.33;22.70
75447;BME280;64024;55.820;37.574;2023-04-24T08:07:20;98864.53;;;26.33;22.89
75447;BME280;64024;55.820;37.574;2023-04-24T08:09:46;98859.41;;;26.32;22.84
75447;BME280;64024;55.820;37.574;2023-04-24T08:12:12;98862.13;;;26.32;22.69
75447;BME280;64024;55.820;37.574;2023-04-24T08:14:37;98850.44;;;26.31;22.42
75447;BME280;64024;55.820;37.574;2023-04-24T08:17:03;98853.16;;;26.31;22.12
75447;BME280;64024;55.820;37.574;2023-04-24T08:19:29;98853.50;;;26.30;21.86
75447;BME280;64024;55.820;37.574;2023-04-24T08:21:54;98842.91;;;26.28;21.49
75447;BME280;64024;55.820;37.574;2023-04-24T08:24:21;98849.00;;;26.25;20.93
75447;BME280;64024;55.820;37.574;2023-04-24T08:26:47;98853.47;;;26.21;20.69
75447;BME280;64024;55.820;37.574;2023-04-24T08:29:16;98849.50;;;26.18;20.81
75447;BME280;64024;55.820;37.574;2023-04-24T08:31:41;98848.69;;;26.18;21.13
75447;BME280;64024;55.820;37.574;2023-04-24T08:34:07;98843.53;;;26.16;21.68
75447;BME280;64024;55.820;37.574;2023-04-24T08:36:33;98835.72;;;26.15;21.68
75447;BME280;64024;55.820;37.574;2023-04-24T08:38:59;98845.00;;;26.14;21.95
75447;BME280;64024;55.820;37.574;2023-04-24T08:41:27;98847.22;;;26.12;22.08
75447;BME280;64024;55.820;37.574;2023-04-24T08:43:53;98845.97;;;26.09;22.38
75447;BME280;64024;55.820;37.574;2023-04-24T08:46:20;98837.81;;;26.09;22.48
75447;BME280;64024;55.820;37.574;2023-04-24T08:48:46;98838.91;;;26.08;22.24
75447;BME280;64024;55.820;37.574;2023-04-24T08:51:13;98837.00;;;26.09;22.07
75447;BME280;64024;55.820;37.574;2023-04-24T08:53:41;98838.91;;;26.08;22.47
75447;BME280;64024;55.820;37.574;2023-04-24T08:56:07;98833.16;;;26.10;22.57
75447;BME280;64024;55.820;37.574;2023-04-24T08:58:33;98833.44;;;26.08;22.75
75447;BME280;64024;55.820;37.574;2023-04-24T09:00:59;98833.44;;;26.08;22.86
75447;BME280;64024;55.820;37.574;2023-04-24T09:03:27;98836.19;;;26.08;22.78
75447;BME280;64024;55.820;37.574;2023-04-24T09:05:55;98822.56;;;26.08;22.81
75447;BME280;64024;55.820;37.574;2023-04-24T09:08:20;98824.19;;;26.18;22.78
75447;BME280;64024;55.820;37.574;2023-04-24T09:10:49;98825.94;;;26.14;22.66
75447;BME280;64024;55.820;37.574;2023-04-24T09:13:15;98823.84;;;26.11;22.60
75447;BME280;64024;55.820;37.574;2023-04-24T09:15:42;98820.00;;;26.12;22.26
75447;BME280;64024;55.820;37.574;2023-04-24T09:18:08;98821.13;;;26.11;22.08
75447;BME280;64024;55.820;37.574;2023-04-24T09:20:33;98824.34;;;26.13;21.67
75447;BME280;64024;55.820;37.574;2023-04-24T09:23:01;98822.41;;;26.13;22.10
75447;BME280;64024;55.820;37.574;2023-04-24T09:25:36;98816.63;;;26.15;21.84
75447;BME280;64024;55.820;37.574;2023-04-24T09:28:03;98820.16;;;26.15;21.89
75447;BME280;64024;55.820;37.574;2023-04-24T09:30:30;98812.47;;;26.17;21.96
75447;BME280;64024;55.820;37.574;2023-04-24T09:33:16;98798.19;;;26.20;21.32
75447;BME280;64024;55.820;37.574;2023-04-24T09:35:51;98799.81;;;26.21;21.20
75447;BME280;64024;55.820;37.574;2023-04-24T09:38:17;98810.72;;;26.21;21.40
75447;BME280;64024;55.820;37.574;2023-04-24T09:40:43;98808.78;;;26.22;20.87
75447;BME280;64024;55.820;37.574;2023-04-24T09:43:12;98802.22;;;26.23;21.78
75447;BME280;64024;55.820;37.574;2023-04-24T09:45:39;98794.84;;;26.23;22.18
75447;BME280;64024;55.820;37.574;2023-04-24T09:48:05;98798.34;;;26.24;22.25
75447;BME280;64024;55.820;37.574;2023-04-24T09:50:35;98798.06;;;26.25;22.52
75447;BME280;64024;55.820;37.574;2023-04-24T09:53:03;98793.41;;;26.26;22.29
75447;BME280;64024;55.820;37.574;2023-04-24T09:55:32;98793.41;;;26.26;22.42
75447;BME280;64024;55.820;37.574;2023-04-24T09:57:59;98789.88;;;26.25;22.14
75447;BME280;64024;55.820;37.574;2023-04-24T10:00:33;98798.84;;;26.26;22.27
75447;BME280;64024;55.820;37.574;2023-04-24T10:03:03;98788.75;;;26.26;22.65
75447;BME280;64024;55.820;37.574;2023-04-24T10:05:33;98787.97;;;26.26;22.42
75447;BME280;64024;55.820;37.574;2023-04-24T10:08:08;98793.06;;;26.27;22.82
75447;BME280;64024;55.820;37.574;2023-04-24T10:10:37;98786.81;;;26.27;22.71
75447;BME280;64024;55.820;37.574;2023-04-24T10:13:04;98784.91;;;26.27;22.47
75447;BME280;64024;55.820;37.574;2023-04-24T10:15:30;98773.22;;;26.27;22.19
75447;BME280;64024;55.820;37.574;2023-04-24T10:17:58;98778.31;;;26.28;22.71
75447;BME280;64024;55.820;37.574;2023-04-24T10:20:26;98773.66;;;26.29;22.76
75447;BME280;64024;55.820;37.574;2023-04-24T10:22:53;98772.56;;;26.30;23.16
75447;BME280;64024;55.820;37.574;2023-04-24T10:25:30;98773.38;;;26.31;22.70
75447;BME280;64024;55.820;37.574;2023-04-24T10:27:58;98765.50;;;26.29;22.83
75447;BME280;64024;55.820;37.574;2023-04-24T10:30:26;98772.06;;;26.28;22.65
75447;BME280;64024;55.820;37.574;2023-04-24T10:32:52;98766.97;;;26.26;22.33
75447;BME280;64024;55.820;37.574;2023-04-24T10:35:19;98767.75;;;26.27;23.01
75447;BME280;64024;55.820;37.574;2023-04-24T10:38:05;98770.47;;;26.27;22.71
75447;BME280;64024;55.820;37.574;2023-04-24T10:40:34;98765.03;;;26.27;22.42
75447;BME280;64024;55.820;37.574;2023-04-24T10:43:03;98763.09;;;26.27;22.95
75447;BME280;64024;55.820;37.574;2023-04-24T10:45:31;98747.56;;;26.28;22.92
75447;BME280;64024;55.820;37.574;2023-04-24T10:50:28;98756.66;;;26.41;22.74
75447;BME280;64024;55.820;37.574;2023-04-24T10:53:05;98752.97;;;26.37;22.45
75447;BME280;64024;55.820;37.574;2023-04-24T10:55:42;98752.81;;;26.33;22.36
75447;BME280;64024;55.820;37.574;2023-04-24T10:58:09;98757.03;;;26.31;22.44
75447;BME280;64024;55.820;37.574;2023-04-24T11:00:39;98753.00;;;26.28;22.34
75447;BME280;64024;55.820;37.574;2023-04-24T11:03:23;98751.56;;;26.31;22.21
75447;BME280;64024;55.820;37.574;2023-04-24T11:06:07;98746.59;;;26.33;21.93
75447;BME280;64024;55.820;37.574;2023-04-24T11:08:45;98745.00;;;26.32;22.41
75447;BME280;64024;55.820;37.574;2023-04-24T11:11:16;98740.66;;;26.31;22.27
75447;BME280;64024;55.820;37.574;2023-04-24T11:16:21;98746.13;;;26.31;22.13
75447;BME280;64024;55.820;37.574;2023-04-24T11:19:03;98737.94;;;26.31;22.41
75447;BME280;64024;55.820;37.574;2023-04-24T11:34:57;98724.00;;;26.32;22.20
75447;BME280;64024;55.820;37.574;2023-04-24T11:37:28;98719.34;;;26.33;22.56
75447;BME280;64024;55.820;37.574;2023-04-24T11:39:54;98715.81;;;26.32;22.63
75447;BME280;64024;55.820;37.574;2023-04-24T11:42:21;98713.09;;;26.32;22.24
75447;BME280;64024;55.820;37.574;2023-04-24T11:44:49;98720.97;;;26.34;22.28
75447;BME280;64024;55.820;37.574;2023-04-24T11:47:17;98714.38;;;26.35;22.20
75447;BME280;64024;55.820;37.574;2023-04-24T11:49:42;98714.03;;;26.36;22.30
75447;BME280;64024;55.820;37.574;2023-04-24T11:52:08;98704.75;;;26.37;22.09
75447;BME280;64024;55.820;37.574;2023-04-24T11:54:34;98696.91;;;26.36;22.21
75447;BME280;64024;55.820;37.574;2023-04-24T11:57:04;98695.78;;;26.37;22.00
75447;BME280;64024;55.820;37.574;2023-04-24T11:59:30;98697.38;;;26.38;21.82
75447;BME280;64024;55.820;37.574;2023-04-24T12:01:55;98685.22;;;26.35;21.82
75447;BME280;64024;55.820;37.574;2023-04-24T12:04:21;98692.25;;;26.36;21.83
75447;BME280;64024;55.820;37.574;2023-04-24T12:07:00;98692.75;;;26.38;21.63
75447;BME280;64024;55.820;37.574;2023-04-24T12:09:26;98682.94;;;26.37;21.33
75447;BME280;64024;55.820;37.574;2023-04-24T12:11:56;98684.41;;;26.35;21.33
75447;BME280;64024;55.820;37.574;2023-04-24T12:14:24;98677.38;;;26.34;21.08
75447;BME280;64024;55.820;37.574;2023-04-24T12:16:50;98677.38;;;26.34;20.81
75447;BME280;64024;55.820;37.574;2023-04-24T12:19:23;98682.81;;;26.34;21.52
75447;BME280;64024;55.820;37.574;2023-04-24T12:22:02;98684.41;;;26.35;21.30
75447;BME280;64024;55.820;37.574;2023-04-24T12:24:29;98675.75;;;26.33;21.70
75447;BME280;64024;55.820;37.574;2023-04-24T12:26:55;98686.31;;;26.43;21.48
75447;BME280;64024;55.820;37.574;2023-04-24T12:29:23;98675.09;;;26.36;21.06
75447;BME280;64024;55.820;37.574;2023-04-24T12:31:51;98683.13;;;26.32;21.50
75447;BME280;64024;55.820;37.574;2023-04-24T12:34:20;98669.03;;;26.30;21.48
75447;BME280;64024;55.820;37.574;2023-04-24T12:36:47;98667.41;;;26.29;21.60
75447;BME280;64024;55.820;37.574;2023-04-24T12:39:20;98661.19;;;26.28;21.36
75447;BME280;64024;55.820;37.574;2023-04-24T12:41:56;98668.25;;;26.30;21.35
75447;BME280;64024;55.820;37.574;2023-04-24T12:44:35;98666.31;;;26.30;21.60
75447;BME280;64024;55.820;37.574;2023-04-24T12:47:02;98660.38;;;26.28;21.48
75447;BME280;64024;55.820;37.574;2023-04-24T12:49:30;98664.25;;;26.27;21.21
75447;BME280;64024;55.820;37.574;2023-04-24T12:51:55;98663.44;;;26.26;21.30
75447;BME280;64024;55.820;37.574;2023-04-24T12:54:22;98661.50;;;26.27;21.33
75447;BME280;64024;55.820;37.574;2023-04-24T12:56:47;98655.28;;;26.26;20.98
75447;BME280;64024;55.820;37.574;2023-04-24T12:59:13;98654.78;;;26.24;21.03
75447;BME280;64024;55.820;37.574;2023-04-24T13:01:40;98649.34;;;26.24;20.83
75447;BME280;64024;55.820;37.574;2023-04-24T13:04:06;98649.03;;;26.26;21.05
75447;BME280;64024;55.820;37.574;2023-04-24T13:06:32;98649.03;;;26.26;21.22
75447;BME280;64024;55.820;37.574;2023-04-24T13:08:58;98647.91;;;26.27;21.21